Time;durP1;ratioP1;P1;durP2;ratioP2;P2;SDS_P1;SDS_P2;PMS_P1;PMS_P2;Temp;Humidity;BMP_temperature;BMP_pressure;BME280_temperature;BME280_humidity;BME280_pressure;Samples;Min_cycle;Max_cycle;Signal;HPM_P1;HPM_P2
2024/04/23 00:00:05;;;;;;;;;0.00;0.00;;;;;;;;5593773;25;8828;-67
2024/04/23 00:02:30;;;;;;;;;0.00;0.00;;;;;;;;5593427;25;8867;-67
2024/04/23 00:04:55;;;;;;;;;0.75;0.00;;;;;;;;5593318;25;8816;-67
2024/04/23 00:07:21;;;;;;;;;0.00;0.00;;;;;;;;5593362;25;8844;-68
2024/04/23 00:09:48;;;;;;;;;0.00;0.00;;;;;;;;5593418;25;8812;-68
2024/04/23 00:12:13;;;;;;;;;1.00;0.00;;;;;;;;5559618;25;8879;-67
2024/04/23 00:14:39;;;;;;;;;0.00;0.00;;;;;;;;5594547;25;11445;-68
2024/04/23 00:17:04;;;;;;;;;0.00;0.00;;;;;;;;5596828;25;8816;-68
2024/04/23 00:19:30;;;;;;;;;0.00;0.00;;;;;;;;5596847;25;8832;-67
2024/04/23 00:21:55;;;;;;;;;0.00;0.00;;;;;;;;5597240;25;8825;-67
2024/04/23 00:24:20;;;;;;;;;0.00;0.00;;;;;;;;5597178;25;8953;-67
2024/04/23 00:26:55;;;;;;;;;0.00;0.00;;;;;;;;5562893;25;8828;-68
2024/04/23 00:29:21;;;;;;;;;0.00;0.00;;;;;;;;5563461;25;8777;-67
2024/04/23 00:31:46;;;;;;;;;0.00;0.00;;;;;;;;5563304;25;11460;-67
2024/04/23 00:34:11;;;;;;;;;0.00;0.00;;;;;;;;5596210;25;8820;-67
2024/04/23 00:36:36;;;;;;;;;0.00;0.00;;;;;;;;5596918;25;8816;-67
2024/04/23 00:39:02;;;;;;;;;1.00;0.00;;;;;;;;5596735;25;8844;-67
2024/04/23 00:41:27;;;;;;;;;1.00;0.00;;;;;;;;5596833;25;8834;-67
2024/04/23 00:43:53;;;;;;;;;0.00;0.00;;;;;;;;5563309;25;8853;-68
2024/04/23 00:46:20;;;;;;;;;0.50;0.50;;;;;;;;5596370;25;9017;-67
2024/04/23 00:48:45;;;;;;;;;0.00;0.00;;;;;;;;5596279;25;11445;-67
2024/04/23 00:51:11;;;;;;;;;0.00;0.00;;;;;;;;5562533;25;11471;-68
2024/04/23 00:53:36;;;;;;;;;0.00;0.00;;;;;;;;5596663;25;8796;-67
2024/04/23 00:56:01;;;;;;;;;0.00;0.00;;;;;;;;5596296;25;8895;-67
2024/04/23 00:58:28;;;;;;;;;0.00;0.00;;;;;;;;5596080;25;8859;-67
2024/04/23 01:00:53;;;;;;;;;0.00;0.00;;;;;;;;5562842;25;8836;-67
2024/04/23 01:03:19;;;;;;;;;2.50;0.00;;;;;;;;5596198;25;12194;-68
2024/04/23 01:05:44;;;;;;;;;0.00;0.00;;;;;;;;5596125;25;8856;-68
2024/04/23 01:08:09;;;;;;;;;0.00;0.00;;;;;;;;5562651;25;8859;-68
2024/04/23 01:10:34;;;;;;;;;0.00;0.00;;;;;;;;5596315;25;8851;-68
2024/04/23 01:13:00;;;;;;;;;0.00;0.00;;;;;;;;5596167;25;8808;-69
2024/04/23 01:15:25;;;;;;;;;0.00;0.00;;;;;;;;5596208;25;8992;-69
2024/04/23 01:17:54;;;;;;;;;0.00;0.00;;;;;;;;5562524;25;8847;-68
2024/04/23 01:20:19;;;;;;;;;1.00;0.00;;;;;;;;5596106;25;8796;-68
2024/04/23 01:22:48;;;;;;;;;0.00;0.00;;;;;;;;5596044;25;11415;-67
2024/04/23 01:25:14;;;;;;;;;1.00;0.00;;;;;;;;5562419;25;8839;-67
2024/04/23 01:27:40;;;;;;;;;0.00;0.00;;;;;;;;5561992;25;11510;-67
2024/04/23 01:30:06;;;;;;;;;0.00;0.00;;;;;;;;5596045;25;11420;-68
2024/04/23 01:32:32;;;;;;;;;0.25;0.00;;;;;;;;5595166;25;11445;-70
2024/04/23 01:34:59;;;;;;;;;0.00;0.00;;;;;;;;5596082;25;11572;-67
2024/04/23 01:37:25;;;;;;;;;0.00;0.00;;;;;;;;5595682;25;11455;-67
2024/04/23 01:39:51;;;;;;;;;0.00;0.00;;;;;;;;5595556;25;11491;-67
2024/04/23 01:42:17;;;;;;;;;1.00;0.00;;;;;;;;5561977;25;11663;-68
2024/04/23 01:44:43;;;;;;;;;0.00;0.00;;;;;;;;5482606;21;11555;-67
2024/04/23 01:47:08;;;;;;;;;0.00;0.00;;;;;;;;5380946;26;11718;-68
2024/04/23 01:49:34;;;;;;;;;0.00;0.00;;;;;;;;5413303;26;8874;-69
2024/04/23 01:51:59;;;;;;;;;0.00;0.00;;;;;;;;5383838;26;9095;-69
2024/04/23 01:54:24;;;;;;;;;0.00;0.00;;;;;;;;5414134;26;8848;-69
2024/04/23 01:56:50;;;;;;;;;0.00;0.00;;;;;;;;5381135;26;8822;-68
2024/04/23 01:59:15;;;;;;;;;0.00;0.00;;;;;;;;5411735;26;8852;-68
2024/04/23 02:01:43;;;;;;;;;0.00;0.00;;;;;;;;5411672;26;8855;-67
2024/04/23 02:04:08;;;;;;;;;0.00;0.00;;;;;;;;5380323;26;8834;-69
2024/04/23 02:06:33;;;;;;;;;0.00;0.00;;;;;;;;5380312;26;11584;-68
2024/04/23 02:08:59;;;;;;;;;0.00;0.00;;;;;;;;5411844;26;8967;-69
2024/04/23 02:11:25;;;;;;;;;0.00;0.00;;;;;;;;5412163;26;8922;-69
2024/04/23 02:13:50;;;;;;;;;0.00;0.00;;;;;;;;5412262;26;8824;-69
2024/04/23 02:16:16;;;;;;;;;0.50;0.00;;;;;;;;5411665;26;8877;-68
2024/04/23 02:18:41;;;;;;;;;1.00;0.00;;;;;;;;5411879;26;8846;-69
2024/04/23 02:21:06;;;;;;;;;0.00;0.00;;;;;;;;5412228;26;8850;-69
2024/04/23 02:23:31;;;;;;;;;0.00;0.00;;;;;;;;5412331;26;8832;-69
2024/04/23 02:25:57;;;;;;;;;0.00;0.00;;;;;;;;5411876;26;8836;-69
2024/04/23 02:28:22;;;;;;;;;0.00;0.00;;;;;;;;5412208;26;8880;-70
2024/04/23 02:30:47;;;;;;;;;0.00;0.00;;;;;;;;5351770;26;8844;-69
2024/04/23 02:33:12;;;;;;;;;0.00;0.00;;;;;;;;5411897;26;8910;-68
2024/04/23 02:35:38;;;;;;;;;0.00;0.00;;;;;;;;5411808;26;8851;-68
2024/04/23 02:38:03;;;;;;;;;0.00;0.00;;;;;;;;5411163;26;8855;-69
2024/04/23 02:40:29;;;;;;;;;0.00;0.00;;;;;;;;5412464;26;8875;-69
2024/04/23 02:42:57;;;;;;;;;0.00;0.00;;;;;;;;5380422;26;8835;-70
2024/04/23 02:45:23;;;;;;;;;0.00;0.00;;;;;;;;5380304;26;8821;-71
2024/04/23 02:47:48;;;;;;;;;0.00;0.00;;;;;;;;5380749;26;11596;-69
2024/04/23 02:50:14;;;;;;;;;0.75;0.75;;;;;;;;5412588;26;9541;-68
2024/04/23 02:52:39;;;;;;;;;0.00;0.00;;;;;;;;5412846;26;8836;-68
2024/04/23 02:55:04;;;;;;;;;1.00;0.00;;;;;;;;5412072;26;8820;-67
2024/04/23 02:57:30;;;;;;;;;0.00;0.00;;;;;;;;5411669;26;8840;-68
2024/04/23 02:59:55;;;;;;;;;0.00;0.00;;;;;;;;5412203;26;9010;-68
2024/04/23 03:02:20;;;;;;;;;0.00;0.00;;;;;;;;5411932;26;8840;-67
2024/04/23 03:04:46;;;;;;;;;0.00;0.00;;;;;;;;5412255;26;8820;-67
2024/04/23 03:07:12;;;;;;;;;0.00;0.00;;;;;;;;5411454;26;8852;-68
2024/04/23 03:09:38;;;;;;;;;0.00;0.00;;;;;;;;5411938;26;8832;-68
2024/04/23 03:12:03;;;;;;;;;1.00;0.00;;;;;;;;5411534;26;12515;-68
2024/04/23 03:14:29;;;;;;;;;1.50;0.00;;;;;;;;5411660;26;8844;-67
2024/04/23 03:16:54;;;;;;;;;0.00;0.00;;;;;;;;5411587;26;8835;-68
2024/04/23 03:19:19;;;;;;;;;2.00;0.00;;;;;;;;5411591;26;9554;-68
2024/04/23 03:21:49;;;;;;;;;0.00;0.00;;;;;;;;5411752;26;8891;-67
2024/04/23 03:24:14;;;;;;;;;0.00;0.00;;;;;;;;5411216;26;8852;-68
2024/04/23 03:26:39;;;;;;;;;0.00;0.00;;;;;;;;5411202;26;11617;-67
2024/04/23 03:29:05;;;;;;;;;1.00;0.00;;;;;;;;5410982;26;8871;-68
2024/04/23 03:31:30;;;;;;;;;2.00;1.00;;;;;;;;5411568;26;8840;-69
2024/04/23 03:33:55;;;;;;;;;1.00;0.50;;;;;;;;5411343;26;8927;-68
2024/04/23 03:36:21;;;;;;;;;0.00;0.00;;;;;;;;5411554;26;8820;-68
2024/04/23 03:38:46;;;;;;;;;0.75;0.00;;;;;;;;5411099;26;8981;-68
2024/04/23 03:41:11;;;;;;;;;0.25;0.25;;;;;;;;5410533;26;8866;-67
2024/04/23 03:43:36;;;;;;;;;0.00;0.00;;;;;;;;5411546;26;8844;-68
2024/04/23 03:46:02;;;;;;;;;1.00;1.00;;;;;;;;5411178;26;8890;-67
2024/04/23 03:48:27;;;;;;;;;0.00;0.00;;;;;;;;5411022;26;8868;-68
2024/04/23 03:50:52;;;;;;;;;0.00;0.00;;;;;;;;5414706;26;8832;-68
2024/04/23 03:53:17;;;;;;;;;0.00;0.00;;;;;;;;5414733;26;8847;-68
2024/04/23 03:55:43;;;;;;;;;0.00;0.00;;;;;;;;5414659;26;8840;-68
2024/04/23 03:58:08;;;;;;;;;1.75;0.00;;;;;;;;5414980;26;8948;-68
2024/04/23 04:00:33;;;;;;;;;1.00;0.00;;;;;;;;5414030;26;8882;-68
2024/04/23 04:08:40;;;;;;;;;2.00;0.25;;;;;;;;5271735;27;11537;-69
2024/04/23 04:11:05;;;;;;;;;1.00;0.00;;;;;;;;5272378;27;12504;-68
2024/04/23 04:13:31;;;;;;;;;0.00;0.00;;;;;;;;5278346;27;8858;-68
2024/04/23 04:15:56;;;;;;;;;1.75;0.00;;;;;;;;5272408;27;8827;-68
2024/04/23 04:18:22;;;;;;;;;1.00;0.00;;;;;;;;5271911;27;8879;-68
2024/04/23 04:20:47;;;;;;;;;2.00;0.00;;;;;;;;5271455;27;9694;-68
2024/04/23 04:23:12;;;;;;;;;0.50;0.50;;;;;;;;5271621;27;8858;-68
2024/04/23 04:25:37;;;;;;;;;6.00;5.00;;;;;;;;5273337;27;8814;-68
2024/04/23 04:28:03;;;;;;;;;3.00;2.00;;;;;;;;5277014;27;8866;-68
2024/04/23 04:30:28;;;;;;;;;1.25;1.00;;;;;;;;5275552;27;8967;-64
2024/04/23 04:32:54;;;;;;;;;0.00;0.00;;;;;;;;5270903;27;8972;-68
2024/04/23 04:35:19;;;;;;;;;3.50;2.00;;;;;;;;5271116;27;9013;-67
2024/04/23 04:37:44;;;;;;;;;1.75;1.00;;;;;;;;5270811;27;8962;-68
2024/04/23 04:40:11;;;;;;;;;5.00;4.00;;;;;;;;5270760;27;8892;-68
2024/04/23 04:42:36;;;;;;;;;1.00;1.00;;;;;;;;5270586;27;8862;-67
2024/04/23 04:45:01;;;;;;;;;0.00;0.00;;;;;;;;5384674;26;11595;-68
2024/04/23 04:47:27;;;;;;;;;1.00;1.00;;;;;;;;5412789;26;8871;-71
2024/04/23 04:49:52;;;;;;;;;1.00;1.00;;;;;;;;5412386;26;9636;-68
2024/04/23 04:52:17;;;;;;;;;4.00;4.00;;;;;;;;5412566;26;8840;-67
2024/04/23 04:54:42;;;;;;;;;1.25;1.25;;;;;;;;5412524;26;9596;-67
2024/04/23 04:57:08;;;;;;;;;1.00;1.00;;;;;;;;5412176;26;8840;-68
2024/04/23 04:59:33;;;;;;;;;0.75;0.00;;;;;;;;5412846;26;8859;-70
2024/04/23 05:01:58;;;;;;;;;1.00;1.00;;;;;;;;5380781;26;8824;-69
2024/04/23 05:04:24;;;;;;;;;1.00;1.00;;;;;;;;5412567;26;9116;-68
2024/04/23 05:06:49;;;;;;;;;0.25;0.25;;;;;;;;5413198;26;8868;-69
2024/04/23 05:09:14;;;;;;;;;0.00;0.00;;;;;;;;5413093;26;8836;-69
2024/04/23 05:11:41;;;;;;;;;0.50;0.50;;;;;;;;5413004;26;8840;-69
2024/04/23 05:14:07;;;;;;;;;1.00;1.00;;;;;;;;5412857;26;9530;-69
2024/04/23 05:16:32;;;;;;;;;3.00;3.00;;;;;;;;5411980;26;11572;-69
2024/04/23 05:18:58;;;;;;;;;1.00;1.00;;;;;;;;5411950;26;8874;-71
2024/04/23 05:21:23;;;;;;;;;1.25;1.25;;;;;;;;5381966;26;8826;-72
2024/04/23 05:23:48;;;;;;;;;0.00;0.00;;;;;;;;5412829;26;8905;-71
2024/04/23 05:26:13;;;;;;;;;0.00;0.00;;;;;;;;5412793;26;9540;-72
2024/04/23 05:28:39;;;;;;;;;2.00;1.00;;;;;;;;5412998;26;8900;-73
2024/04/23 05:33:48;;;;;;;;;1.00;1.00;;;;;;;;5413335;26;8820;-72
2024/04/23 05:36:14;;;;;;;;;0.00;0.00;;;;;;;;5407967;26;12328;-70
2024/04/23 05:38:39;;;;;;;;;1.33;1.00;;;;;;;;5412053;26;8859;-73
2024/04/23 05:41:04;;;;;;;;;1.33;1.33;;;;;;;;5411747;26;8852;-72
2024/04/23 05:43:29;;;;;;;;;3.33;1.67;;;;;;;;5428358;21;8839;-84
2024/04/23 05:45:55;;;;;;;;;1.00;1.00;;;;;;;;5379898;26;8941;-84
2024/04/23 05:48:38;;;;;;;;;0.00;0.00;;;;;;;;5417478;26;8826;-84
2024/04/23 05:51:23;;;;;;;;;0.67;0.67;;;;;;;;5409731;26;8849;-80
2024/04/23 05:54:07;;;;;;;;;0.67;0.00;;;;;;;;5410853;26;11539;-87
2024/04/23 05:56:32;;;;;;;;;1.00;0.00;;;;;;;;5390444;26;11638;-81
2024/04/23 05:58:57;;;;;;;;;4.00;0.00;;;;;;;;5413393;26;11600;-74
2024/04/23 06:01:22;;;;;;;;;9.00;7.33;;;;;;;;5413785;26;8862;-74
2024/04/23 06:03:47;;;;;;;;;0.50;0.00;;;;;;;;5414652;26;8837;-74
2024/04/23 06:06:13;;;;;;;;;0.00;0.00;;;;;;;;5412623;26;8883;-75
2024/04/23 06:08:38;;;;;;;;;0.00;0.00;;;;;;;;5411252;26;8945;-75
2024/04/23 06:11:03;;;;;;;;;0.00;0.00;;;;;;;;5413861;26;8836;-76
2024/04/23 06:13:28;;;;;;;;;0.00;0.00;;;;;;;;5412776;26;8824;-76
2024/04/23 06:15:54;;;;;;;;;0.00;0.00;;;;;;;;5413551;26;8895;-77
2024/04/23 06:18:22;;;;;;;;;0.00;0.00;;;;;;;;5413616;26;8851;-77
2024/04/23 06:20:50;;;;;;;;;1.00;0.00;;;;;;;;5413734;26;8848;-76
2024/04/23 06:23:17;;;;;;;;;0.00;0.00;;;;;;;;5413855;26;11582;-77
2024/04/23 06:25:43;;;;;;;;;1.00;0.00;;;;;;;;5413886;26;11542;-79
2024/04/23 06:28:08;;;;;;;;;0.00;0.00;;;;;;;;5413625;26;11593;-77
2024/04/23 06:30:33;;;;;;;;;0.00;0.00;;;;;;;;5413897;26;8943;-76
2024/04/23 06:32:58;;;;;;;;;1.00;0.00;;;;;;;;5413792;26;8933;-80
2024/04/23 06:35:24;;;;;;;;;0.50;0.50;;;;;;;;5413555;26;8920;-80
2024/04/23 06:37:49;;;;;;;;;1.00;0.50;;;;;;;;5413491;26;8871;-78
2024/04/23 06:40:14;;;;;;;;;0.75;0.75;;;;;;;;5413578;26;8867;-77
2024/04/23 06:42:39;;;;;;;;;0.25;0.25;;;;;;;;5413790;26;8841;-77
2024/04/23 06:45:05;;;;;;;;;0.00;0.00;;;;;;;;5413545;26;8872;-74
2024/04/23 06:47:30;;;;;;;;;0.00;0.00;;;;;;;;5413526;26;8852;-72
2024/04/23 06:49:56;;;;;;;;;0.00;0.00;;;;;;;;5413472;26;8847;-73
2024/04/23 06:52:21;;;;;;;;;0.00;0.00;;;;;;;;5413357;26;9009;-73
2024/04/23 06:54:46;;;;;;;;;0.00;0.00;;;;;;;;5412567;26;8816;-74
2024/04/23 06:57:12;;;;;;;;;0.00;0.00;;;;;;;;5412428;26;8852;-73
2024/04/23 06:59:37;;;;;;;;;0.00;0.00;;;;;;;;5412691;26;8863;-74
2024/04/23 07:02:03;;;;;;;;;1.00;0.00;;;;;;;;5412890;26;8904;-74
2024/04/23 07:04:28;;;;;;;;;0.00;0.00;;;;;;;;5413426;26;8829;-72
2024/04/23 07:06:53;;;;;;;;;0.00;0.00;;;;;;;;5413296;26;9558;-76
2024/04/23 07:09:19;;;;;;;;;0.00;0.00;;;;;;;;5381645;26;9618;-77
2024/04/23 07:11:44;;;;;;;;;0.00;0.00;;;;;;;;5413511;26;8821;-87
2024/04/23 07:14:09;;;;;;;;;0.00;0.00;;;;;;;;5413334;26;8821;-77
2024/04/23 07:16:35;;;;;;;;;0.00;0.00;;;;;;;;5381571;26;8920;-80
2024/04/23 07:19:00;;;;;;;;;0.00;0.00;;;;;;;;5381618;26;8866;-84
2024/04/23 07:21:25;;;;;;;;;0.00;0.00;;;;;;;;5412918;26;8979;-82
2024/04/23 07:23:51;;;;;;;;;0.00;0.00;;;;;;;;5412600;26;8805;-82
2024/04/23 07:26:18;;;;;;;;;0.00;0.00;;;;;;;;5380722;26;8847;-82
2024/04/23 07:28:43;;;;;;;;;0.00;0.00;;;;;;;;5380254;26;9654;-84
2024/04/23 07:31:08;;;;;;;;;0.00;0.00;;;;;;;;5411760;26;11608;-82
2024/04/23 07:33:34;;;;;;;;;0.00;0.00;;;;;;;;5411933;26;8836;-82
2024/04/23 07:35:59;;;;;;;;;0.00;0.00;;;;;;;;5411918;26;9654;-80
2024/04/23 07:38:24;;;;;;;;;0.00;0.00;;;;;;;;5381191;26;8988;-73
2024/04/23 07:40:50;;;;;;;;;0.00;0.00;;;;;;;;5407613;26;8817;-78
2024/04/23 07:43:15;;;;;;;;;0.00;0.00;;;;;;;;5381344;26;8829;-78
2024/04/23 07:45:41;;;;;;;;;0.00;0.00;;;;;;;;5412970;26;8825;-81
2024/04/23 07:48:06;;;;;;;;;0.00;0.00;;;;;;;;5411595;26;8882;-80
2024/04/23 07:50:31;;;;;;;;;0.00;0.00;;;;;;;;5412886;26;8920;-81
2024/04/23 07:52:56;;;;;;;;;0.00;0.00;;;;;;;;5412584;26;8825;-70
2024/04/23 07:55:22;;;;;;;;;0.50;0.00;;;;;;;;5411941;26;8845;-80
2024/04/23 07:57:48;;;;;;;;;0.00;0.00;;;;;;;;5411660;26;8961;-81
2024/04/23 08:00:14;;;;;;;;;0.00;0.00;;;;;;;;5410480;26;8813;-82
2024/04/23 08:02:40;;;;;;;;;0.00;0.00;;;;;;;;5379971;26;8817;-83
2024/04/23 08:05:05;;;;;;;;;0.00;0.00;;;;;;;;5380369;26;12354;-80
2024/04/23 08:07:31;;;;;;;;;0.00;0.00;;;;;;;;5412203;26;8848;-82
2024/04/23 08:09:56;;;;;;;;;1.00;0.00;;;;;;;;5411736;26;8845;-81
2024/04/23 08:12:21;;;;;;;;;0.00;0.00;;;;;;;;5413994;26;8833;-82
2024/04/23 08:14:46;;;;;;;;;0.00;0.00;;;;;;;;5412259;26;8937;-82
2024/04/23 08:17:12;;;;;;;;;0.00;0.00;;;;;;;;5411991;26;8817;-81
2024/04/23 08:19:37;;;;;;;;;0.50;0.50;;;;;;;;5412119;26;9609;-81
2024/04/23 08:22:02;;;;;;;;;0.00;0.00;;;;;;;;5380455;26;8848;-80
2024/04/23 08:24:28;;;;;;;;;0.00;0.00;;;;;;;;5380409;26;8841;-77
2024/04/23 08:26:53;;;;;;;;;0.25;0.00;;;;;;;;5380311;26;8852;-76
2024/04/23 08:29:19;;;;;;;;;1.00;1.00;;;;;;;;5411363;26;8833;-76
2024/04/23 08:31:44;;;;;;;;;0.25;0.00;;;;;;;;5380472;26;8932;-76
2024/04/23 08:34:09;;;;;;;;;1.00;1.00;;;;;;;;5411685;26;8845;-76
2024/04/23 08:36:35;;;;;;;;;0.00;0.00;;;;;;;;5414295;26;8825;-74
2024/04/23 08:39:00;;;;;;;;;0.00;0.00;;;;;;;;5415391;26;8836;-75
2024/04/23 08:41:26;;;;;;;;;0.00;0.00;;;;;;;;5414466;26;8844;-74
2024/04/23 08:44:10;;;;;;;;;1.00;1.00;;;;;;;;5414136;26;8809;-75
2024/04/23 08:46:39;;;;;;;;;3.00;3.00;;;;;;;;5379864;26;11491;-75
2024/04/23 08:49:05;;;;;;;;;2.00;2.00;;;;;;;;5414592;26;11554;-75
2024/04/23 08:51:31;;;;;;;;;1.00;0.00;;;;;;;;5414125;26;11501;-75
2024/04/23 08:53:57;;;;;;;;;0.00;0.00;;;;;;;;5416710;26;8951;-75
2024/04/23 08:56:25;;;;;;;;;0.00;0.00;;;;;;;;5413589;26;11529;-75
2024/04/23 08:58:50;;;;;;;;;0.00;0.00;;;;;;;;5415027;26;11508;-75
2024/04/23 09:01:29;;;;;;;;;0.00;0.00;;;;;;;;5414202;26;11585;-75
2024/04/23 09:03:58;;;;;;;;;1.00;1.00;;;;;;;;5414151;26;8952;-74
2024/04/23 09:06:24;;;;;;;;;0.00;0.00;;;;;;;;5413705;26;11598;-74
2024/04/23 09:08:49;;;;;;;;;0.00;0.00;;;;;;;;5414334;26;11497;-68
2024/04/23 09:11:14;;;;;;;;;0.50;0.00;;;;;;;;5382747;26;11581;-69
2024/04/23 09:13:40;;;;;;;;;1.00;1.00;;;;;;;;5414976;26;8941;-69
2024/04/23 09:16:06;;;;;;;;;0.00;0.00;;;;;;;;5383032;26;8871;-69
2024/04/23 09:18:31;;;;;;;;;0.00;0.00;;;;;;;;5413625;26;9012;-68
2024/04/23 09:20:57;;;;;;;;;1.00;1.00;;;;;;;;5414180;26;8868;-71
2024/04/23 09:23:25;;;;;;;;;8.00;4.75;;;;;;;;5413590;26;8865;-69
2024/04/23 09:25:51;;;;;;;;;1.50;0.50;;;;;;;;5413908;26;8816;-71
2024/04/23 09:28:22;;;;;;;;;0.00;0.00;;;;;;;;5414143;26;11541;-71
2024/04/23 09:30:50;;;;;;;;;0.00;0.00;;;;;;;;5377846;26;8798;-72
2024/04/23 09:33:21;;;;;;;;;0.00;0.00;;;;;;;;5413649;26;11254;-71
2024/04/23 09:35:46;;;;;;;;;1.75;0.25;;;;;;;;5409496;26;11739;-72
2024/04/23 09:38:14;;;;;;;;;0.25;0.25;;;;;;;;5414265;26;11027;-72
2024/04/23 09:40:40;;;;;;;;;0.00;0.00;;;;;;;;5414052;26;8872;-72
2024/04/23 09:43:05;;;;;;;;;1.00;1.00;;;;;;;;5414324;26;11099;-73
2024/04/23 09:45:31;;;;;;;;;0.00;0.00;;;;;;;;5381822;26;8926;-73
2024/04/23 09:47:56;;;;;;;;;0.00;0.00;;;;;;;;5413108;26;8837;-72
2024/04/23 09:50:27;;;;;;;;;1.00;1.00;;;;;;;;5379442;26;8836;-73
2024/04/23 09:52:52;;;;;;;;;0.25;0.25;;;;;;;;5381142;26;9008;-71
2024/04/23 09:55:17;;;;;;;;;0.00;0.00;;;;;;;;5413585;26;11465;-71
2024/04/23 09:57:43;;;;;;;;;1.75;1.00;;;;;;;;5412947;26;8970;-70
2024/04/23 10:00:10;;;;;;;;;1.00;1.00;;;;;;;;5413410;26;8878;-70
2024/04/23 10:02:37;;;;;;;;;1.75;1.00;;;;;;;;5413022;26;8820;-70
2024/04/23 10:05:07;;;;;;;;;1.00;1.00;;;;;;;;5413996;26;12330;-72
2024/04/23 10:07:48;;;;;;;;;1.00;1.00;;;;;;;;5382293;26;11646;-71
2024/04/23 10:10:17;;;;;;;;;2.00;2.00;;;;;;;;5413487;26;11821;-71
2024/04/23 10:12:44;;;;;;;;;2.00;2.00;;;;;;;;5382032;26;11640;-71
2024/04/23 10:15:14;;;;;;;;;3.00;1.00;;;;;;;;5413900;26;12310;-71
2024/04/23 10:18:03;;;;;;;;;1.00;1.00;;;;;;;;5413303;26;11586;-71
2024/04/23 10:20:33;;;;;;;;;1.00;1.00;;;;;;;;5413646;26;11638;-72
2024/04/23 10:22:59;;;;;;;;;1.75;1.00;;;;;;;;5413392;26;11713;-72
2024/04/23 10:25:25;;;;;;;;;0.00;0.00;;;;;;;;5408085;26;11517;-72
2024/04/23 10:27:52;;;;;;;;;1.25;0.00;;;;;;;;5412705;26;11626;-72
2024/04/23 10:30:18;;;;;;;;;1.00;1.00;;;;;;;;5380966;26;8818;-72
2024/04/23 10:32:43;;;;;;;;;1.00;1.00;;;;;;;;5412512;26;12235;-70
2024/04/23 10:35:10;;;;;;;;;0.00;0.00;;;;;;;;5412912;26;8891;-69
2024/04/23 10:37:37;;;;;;;;;0.00;0.00;;;;;;;;5412584;26;8852;-69
2024/04/23 10:40:04;;;;;;;;;1.00;1.00;;;;;;;;5412381;26;11592;-69
2024/04/23 10:42:30;;;;;;;;;1.00;1.00;;;;;;;;5412320;26;12494;-69
2024/04/23 10:44:55;;;;;;;;;3.50;2.25;;;;;;;;5412357;26;11530;-69
2024/04/23 10:47:21;;;;;;;;;2.25;2.00;;;;;;;;5412359;26;11724;-70
2024/04/23 10:49:49;;;;;;;;;2.50;1.00;;;;;;;;5413819;26;8883;-72
2024/04/23 10:52:17;;;;;;;;;2.00;2.00;;;;;;;;5412485;26;9534;-72
2024/04/23 10:54:43;;;;;;;;;2.00;2.00;;;;;;;;5412149;26;11547;-72
2024/04/23 10:57:09;;;;;;;;;1.00;1.00;;;;;;;;5411440;26;11551;-72
2024/04/23 10:59:38;;;;;;;;;2.00;1.00;;;;;;;;5411860;26;11534;-72
2024/04/23 11:02:07;;;;;;;;;1.00;1.00;;;;;;;;5380479;26;8832;-73
2024/04/23 11:04:38;;;;;;;;;1.00;1.00;;;;;;;;5411856;26;11656;-72
2024/04/23 11:07:04;;;;;;;;;38.50;34.50;;;;;;;;5380468;26;11633;-72
2024/04/23 11:09:34;;;;;;;;;11.00;9.75;;;;;;;;5411781;26;11648;-72
2024/04/23 11:11:59;;;;;;;;;2.00;2.00;;;;;;;;5412035;26;11585;-72
2024/04/23 11:14:34;;;;;;;;;3.00;3.00;;;;;;;;5412032;26;11614;-72
2024/04/23 11:17:00;;;;;;;;;15.25;11.00;;;;;;;;5412269;26;8814;-71
2024/04/23 11:19:33;;;;;;;;;14.25;13.50;;;;;;;;5412188;26;11561;-77
2024/04/23 11:21:59;;;;;;;;;8.50;8.00;;;;;;;;5412545;26;8864;-75
2024/04/23 11:24:26;;;;;;;;;2.00;2.00;;;;;;;;5411731;26;11684;-79
2024/04/23 11:26:52;;;;;;;;;6.75;4.00;;;;;;;;5412333;26;11573;-78
2024/04/23 11:29:17;;;;;;;;;0.00;0.00;;;;;;;;5380173;26;11624;-79
2024/04/23 11:31:42;;;;;;;;;0.00;0.00;;;;;;;;5412221;26;8812;-78
2024/04/23 11:34:08;;;;;;;;;1.00;1.00;;;;;;;;5412020;26;8821;-76
2024/04/23 11:36:33;;;;;;;;;0.00;0.00;;;;;;;;5411505;26;8840;-78
2024/04/23 11:39:06;;;;;;;;;0.00;0.00;;;;;;;;5380060;26;8828;-77
2024/04/23 11:41:31;;;;;;;;;1.00;1.00;;;;;;;;5408434;26;8857;-78
2024/04/23 11:43:56;;;;;;;;;1.00;1.00;;;;;;;;5411910;26;11543;-78
2024/04/23 11:46:22;;;;;;;;;1.00;1.00;;;;;;;;5412513;26;8837;-78
2024/04/23 11:48:49;;;;;;;;;0.00;0.00;;;;;;;;5381109;26;8845;-76
2024/04/23 11:51:15;;;;;;;;;2.00;0.25;;;;;;;;5380959;26;8845;-76
2024/04/23 11:53:40;;;;;;;;;0.00;0.00;;;;;;;;5411522;26;11587;-75
2024/04/23 11:56:06;;;;;;;;;0.00;0.00;;;;;;;;5406557;26;8943;-74
2024/04/23 11:58:36;;;;;;;;;0.00;0.00;;;;;;;;5407073;26;8809;-74
2024/04/23 12:01:01;;;;;;;;;1.00;0.00;;;;;;;;5412201;26;8851;-75
2024/04/23 12:03:27;;;;;;;;;2.00;1.00;;;;;;;;5411550;26;11550;-75
2024/04/23 12:05:52;;;;;;;;;1.00;1.00;;;;;;;;5411242;26;9598;-78
2024/04/23 12:08:17;;;;;;;;;3.00;1.00;;;;;;;;5411284;26;8896;-75
2024/04/23 12:10:43;;;;;;;;;0.00;0.00;;;;;;;;5413628;26;8828;-75
2024/04/23 12:13:15;;;;;;;;;0.25;0.00;;;;;;;;5383670;26;8879;-72
2024/04/23 12:15:40;;;;;;;;;0.00;0.00;;;;;;;;5415725;26;8857;-74
2024/04/23 12:18:06;;;;;;;;;0.00;0.00;;;;;;;;5383218;26;11552;-68
2024/04/23 12:20:31;;;;;;;;;0.00;0.00;;;;;;;;5414557;26;8848;-68
2024/04/23 12:23:09;;;;;;;;;1.00;0.00;;;;;;;;5414490;26;8863;-70
2024/04/23 12:25:34;;;;;;;;;0.00;0.00;;;;;;;;5411942;26;8880;-68
2024/04/23 12:28:00;;;;;;;;;0.00;0.00;;;;;;;;5414538;26;11526;-69
2024/04/23 12:30:25;;;;;;;;;0.25;0.25;;;;;;;;5383078;26;8816;-69
2024/04/23 12:32:51;;;;;;;;;0.00;0.00;;;;;;;;5415179;26;8851;-69
2024/04/23 12:35:22;;;;;;;;;0.00;0.00;;;;;;;;5414426;26;8911;-68
2024/04/23 12:37:55;;;;;;;;;0.00;0.00;;;;;;;;5409844;26;11593;-74
2024/04/23 12:40:21;;;;;;;;;0.00;0.00;;;;;;;;5414636;26;11563;-72
2024/04/23 12:42:46;;;;;;;;;0.00;0.00;;;;;;;;5414924;26;11513;-72
2024/04/23 12:45:12;;;;;;;;;0.00;0.00;;;;;;;;5382834;26;8970;-76
2024/04/23 12:47:37;;;;;;;;;0.00;0.00;;;;;;;;5413409;26;9641;-73
2024/04/23 12:50:02;;;;;;;;;0.00;0.00;;;;;;;;5414511;26;9680;-73
2024/04/23 12:52:28;;;;;;;;;0.00;0.00;;;;;;;;5415225;26;8912;-72
2024/04/23 12:54:53;;;;;;;;;0.00;0.00;;;;;;;;5411410;26;9578;-70
2024/04/23 12:57:18;;;;;;;;;0.00;0.00;;;;;;;;5410347;26;8845;-70
2024/04/23 12:59:43;;;;;;;;;2.00;1.00;;;;;;;;5412474;26;8828;-71
2024/04/23 13:02:09;;;;;;;;;1.00;1.00;;;;;;;;5414031;26;9858;-71
2024/04/23 13:04:35;;;;;;;;;1.00;1.00;;;;;;;;5414277;26;8903;-70
2024/04/23 13:07:00;;;;;;;;;1.00;1.00;;;;;;;;5414695;26;11534;-69
2024/04/23 13:09:26;;;;;;;;;1.00;1.00;;;;;;;;5383160;26;8871;-70
2024/04/23 13:11:51;;;;;;;;;1.00;1.00;;;;;;;;5414725;26;9660;-68
2024/04/23 13:14:16;;;;;;;;;0.25;0.25;;;;;;;;5414213;26;8959;-67
2024/04/23 13:16:41;;;;;;;;;1.50;1.00;;;;;;;;5413566;26;8840;-69
2024/04/23 13:19:07;;;;;;;;;1.00;1.00;;;;;;;;5414141;26;8844;-67
2024/04/23 13:21:32;;;;;;;;;1.00;1.00;;;;;;;;5413832;26;8920;-68
2024/04/23 13:23:57;;;;;;;;;1.00;0.00;;;;;;;;5413972;26;8828;-68
2024/04/23 13:26:22;;;;;;;;;0.00;0.00;;;;;;;;5382777;26;9589;-69
2024/04/23 13:28:47;;;;;;;;;0.00;0.00;;;;;;;;5415064;26;8840;-69
2024/04/23 13:31:13;;;;;;;;;0.25;0.25;;;;;;;;5383316;26;9653;-67
2024/04/23 13:33:38;;;;;;;;;1.00;1.00;;;;;;;;5414522;26;8883;-68
2024/04/23 13:36:07;;;;;;;;;1.00;1.00;;;;;;;;5414432;26;8910;-69
2024/04/23 13:38:33;;;;;;;;;1.00;1.00;;;;;;;;5414767;26;8883;-69
2024/04/23 13:40:58;;;;;;;;;1.00;1.00;;;;;;;;5414945;26;11453;-68
2024/04/23 13:43:23;;;;;;;;;1.00;1.00;;;;;;;;5414423;26;8817;-68
2024/04/23 13:45:49;;;;;;;;;1.50;1.25;;;;;;;;5414349;26;8855;-68
2024/04/23 13:48:14;;;;;;;;;0.00;0.00;;;;;;;;5414458;26;8845;-72
2024/04/23 13:50:39;;;;;;;;;1.00;0.00;;;;;;;;5414835;26;8851;-69
2024/04/23 13:53:04;;;;;;;;;0.00;0.00;;;;;;;;5414523;26;8805;-69
2024/04/23 13:55:30;;;;;;;;;0.00;0.00;;;;;;;;5414167;26;9528;-69
2024/04/23 13:57:58;;;;;;;;;0.25;0.25;;;;;;;;5382646;26;8913;-66
2024/04/23 14:00:23;;;;;;;;;0.50;0.25;;;;;;;;5414561;26;8845;-66
2024/04/23 14:02:48;;;;;;;;;0.00;0.00;;;;;;;;5414575;26;11453;-67
2024/04/23 14:05:14;;;;;;;;;0.75;0.00;;;;;;;;5414437;26;8853;-66
2024/04/23 14:07:39;;;;;;;;;0.00;0.00;;;;;;;;5414124;26;8820;-68
2024/04/23 14:10:05;;;;;;;;;0.00;0.00;;;;;;;;5414207;26;9698;-70
2024/04/23 14:12:31;;;;;;;;;0.50;0.50;;;;;;;;5381742;26;8833;-71
2024/04/23 14:14:56;;;;;;;;;0.00;0.00;;;;;;;;5382191;26;8840;-72
2024/04/23 14:17:21;;;;;;;;;1.50;1.00;;;;;;;;5381860;26;8836;-72
2024/04/23 14:19:46;;;;;;;;;2.00;0.50;;;;;;;;5413681;26;8844;-71
2024/04/23 14:22:16;;;;;;;;;1.00;1.00;;;;;;;;5381735;26;8923;-72
2024/04/23 14:24:41;;;;;;;;;0.00;0.00;;;;;;;;5413696;26;8802;-72
2024/04/23 14:27:07;;;;;;;;;1.00;0.00;;;;;;;;5413245;26;12237;-69
2024/04/23 14:29:32;;;;;;;;;0.00;0.00;;;;;;;;5382197;26;9608;-70
2024/04/23 14:31:58;;;;;;;;;0.00;0.00;;;;;;;;5413890;26;8828;-68
2024/04/23 14:34:25;;;;;;;;;0.00;0.00;;;;;;;;5412730;26;8937;-68
2024/04/23 14:36:51;;;;;;;;;0.00;0.00;;;;;;;;5382685;26;9038;-70
2024/04/23 14:39:16;;;;;;;;;0.00;0.00;;;;;;;;5413430;26;11416;-75
2024/04/23 14:41:41;;;;;;;;;1.00;1.00;;;;;;;;5414157;26;8937;-72
2024/04/23 14:44:07;;;;;;;;;0.00;0.00;;;;;;;;5414405;26;8833;-75
2024/04/23 14:46:33;;;;;;;;;1.00;0.00;;;;;;;;5381091;26;8837;-73
2024/04/23 14:48:58;;;;;;;;;0.00;0.00;;;;;;;;5412885;26;8844;-73
2024/04/23 14:51:23;;;;;;;;;0.00;0.00;;;;;;;;5412436;26;8860;-73
2024/04/23 14:53:52;;;;;;;;;0.75;0.75;;;;;;;;5380934;26;8870;-71